createdAt,value
2022-11-29T05:01:25.777Z,72.07
2022-11-29T05:04:00.763Z,68.20
2022-11-29T05:06:34.990Z,79.53
2022-11-29T05:09:10.914Z,86.97
2022-11-29T05:11:49.454Z,78.07
2022-11-29T05:14:27.270Z,82.70
2022-11-29T05:17:08.614Z,83.20
2022-11-29T05:19:54.227Z,84.17
2022-11-29T05:22:31.492Z,76.80
2022-11-29T05:25:21.386Z,78.90
2022-11-29T05:27:56.632Z,92.67
2022-11-29T05:30:31.698Z,89.77
2022-11-29T05:33:10.637Z,75.93
2022-11-29T05:35:51.064Z,82.67
2022-11-29T05:38:40.694Z,85.97
2022-11-29T05:41:19.237Z,88.30
2022-11-29T05:43:59.317Z,79.67
2022-11-29T05:46:33.686Z,97.97
2022-11-29T05:49:12.354Z,99.23
2022-11-29T05:51:46.584Z,80.53
2022-11-29T05:54:24.227Z,82.90
2022-11-29T05:57:02.377Z,86.93
2022-11-29T05:59:35.713Z,88.47
2022-11-29T06:02:14.491Z,90.43
2022-11-29T06:04:58.577Z,99.83
2022-11-29T06:07:32.935Z,107.37
2022-11-29T06:10:05.998Z,118.80
2022-11-29T06:12:38.116Z,123.57
2022-11-29T06:15:33.512Z,124.40
2022-11-29T06:18:25.263Z,149.27
2022-11-29T06:21:02.683Z,155.47
2022-11-29T06:23:57.732Z,181.93
2022-11-29T06:26:48.695Z,177.63
2022-11-29T06:29:25.673Z,166.53
2022-11-29T06:32:02.127Z,173.83
2022-11-29T06:34:38.091Z,195.93
2022-11-29T06:37:14.266Z,181.07
2022-11-29T06:39:46.218Z,170.83
2022-11-29T06:42:17.861Z,174.83
2022-11-29T06:44:49.983Z,182.53
2022-11-29T06:47:25.355Z,187.83
2022-11-29T06:49:59.390Z,167.30
2022-11-29T06:52:37.081Z,180.80
2022-11-29T06:55:13.275Z,164.40
2022-11-29T06:57:53.164Z,166.80
2022-11-29T07:00:26.068Z,161.23
2022-11-29T07:03:23.552Z,167.93
2022-11-29T07:05:55.628Z,172.60
2022-11-29T07:08:29.202Z,170.03
2022-11-29T07:11:01.669Z,162.23
2022-11-29T07:13:33.870Z,188.97
2022-11-29T07:16:11.256Z,170.60
2022-11-29T07:18:44.640Z,178.57
2022-11-29T07:21:19.460Z,168.07
2022-11-29T07:23:55.487Z,196.10
2022-11-29T07:26:29.395Z,181.27
2022-11-29T07:29:07.064Z,168.40
2022-11-29T07:31:44.638Z,178.57
2022-11-29T07:34:19.386Z,167.30
2022-11-29T07:36:55.038Z,167.90
2022-11-29T07:39:34.111Z,182.33
2022-11-29T07:42:08.364Z,165.77
2022-11-29T07:44:44.209Z,180.37
2022-11-29T07:47:16.072Z,178.27
2022-11-29T07:49:47.746Z,184.83
2022-11-29T07:52:19.416Z,190.80
2022-11-29T07:54:52.382Z,195.23
2022-11-29T07:57:24.041Z,204.77
2022-11-29T07:59:55.668Z,182.57
2022-11-29T08:02:28.200Z,177.83
2022-11-29T08:04:59.868Z,175.80
2022-11-29T08:07:33.556Z,195.83
2022-11-29T08:10:08.064Z,184.03
2022-11-29T08:12:42.203Z,176.87
2022-11-29T08:15:14.012Z,168.60
2022-11-29T08:17:45.674Z,153.97
2022-11-29T08:20:17.401Z,157.17
2022-11-29T08:22:54.314Z,165.50
2022-11-29T08:25:27.401Z,151.93
2022-11-29T08:27:59.040Z,148.53
2022-11-29T08:30:30.703Z,138.83
2022-11-29T08:33:02.349Z,143.27
2022-11-29T08:35:34.332Z,135.07
2022-11-29T08:38:05.966Z,143.83
2022-11-29T08:40:39.204Z,129.53
2022-11-29T08:43:10.892Z,127.07
2022-11-29T08:45:42.737Z,129.00
2022-11-29T08:48:14.420Z,125.20
2022-11-29T08:50:46.036Z,127.80
2022-11-29T08:53:18.177Z,114.43
2022-11-29T08:55:51.153Z,115.93
2022-11-29T08:58:22.856Z,126.23
2022-11-29T09:00:54.571Z,143.43
2022-11-29T09:03:26.313Z,115.57
2022-11-29T09:05:58.542Z,117.33
2022-11-29T09:08:30.196Z,124.77
2022-11-29T09:11:08.592Z,115.53
2022-11-29T09:13:40.603Z,117.30
2022-11-29T09:16:14.421Z,108.13
2022-11-29T09:18:51.394Z,108.17
2022-11-29T09:21:24.561Z,127.93
2022-11-29T09:23:58.069Z,121.43
2022-11-29T09:26:31.765Z,116.57
2022-11-29T09:29:04.794Z,108.87
2022-11-29T09:31:36.569Z,108.77
2022-11-29T09:34:08.242Z,113.40
2022-11-29T09:36:39.897Z,109.50
2022-11-29T09:39:11.668Z,102.83
2022-11-29T09:42:12.300Z,122.70
2022-11-29T09:44:52.992Z,110.57
2022-11-29T09:47:36.795Z,110.37
2022-11-29T09:50:21.443Z,114.10
2022-11-29T09:52:58.032Z,93.80
2022-11-29T09:55:37.950Z,98.23
2022-11-29T09:58:13.480Z,94.30
2022-11-29T10:00:47.304Z,100.70
2022-11-29T10:03:21.452Z,115.60
2022-11-29T10:05:55.409Z,94.93
2022-11-29T10:08:31.111Z,102.20
2022-11-29T10:11:11.988Z,105.20
2022-11-29T10:13:47.266Z,103.53
2022-11-29T10:16:23.160Z,104.77
2022-11-29T10:18:58.684Z,107.13
2022-11-29T10:21:32.442Z,101.77
2022-11-29T10:24:05.959Z,89.93
2022-11-29T10:26:37.795Z,103.77
2022-11-29T10:29:12.786Z,107.80
2022-11-29T10:31:44.902Z,97.00
2022-11-29T10:34:18.563Z,88.43
2022-11-29T10:36:50.861Z,89.33
2022-11-29T10:39:24.361Z,78.67
2022-11-29T10:41:56.891Z,79.60
2022-11-29T10:44:30.880Z,81.50
2022-11-29T10:47:06.587Z,93.40
2022-11-29T10:49:41.091Z,86.07
2022-11-29T10:52:15.011Z,83.27
2022-11-29T10:54:46.806Z,78.97
2022-11-29T10:57:19.347Z,78.00
2022-11-29T11:00:03.685Z,81.03
2022-11-29T11:02:35.522Z,82.87
2022-11-29T11:05:12.475Z,76.50
2022-11-29T11:07:44.182Z,77.23
2022-11-29T11:10:20.847Z,82.53
2022-11-29T11:13:01.060Z,75.07
2022-11-29T11:15:34.087Z,69.87
2022-11-29T11:18:06.561Z,57.23
2022-11-29T11:20:39.921Z,61.17
2022-11-29T11:23:22.611Z,62.07
2022-11-29T11:25:58.124Z,59.27
2022-11-29T11:28:30.917Z,60.23
2022-11-29T11:31:04.977Z,61.90
2022-11-29T11:33:37.495Z,60.77
2022-11-29T11:36:12.133Z,51.13
2022-11-29T11:38:49.814Z,53.47
2022-11-29T11:41:23.474Z,55.87
2022-11-29T11:43:56.924Z,58.77
2022-11-29T11:46:47.980Z,55.53
2022-11-29T11:49:25.169Z,53.73
2022-11-29T11:51:57.212Z,64.03
2022-11-29T11:54:29.100Z,75.83
2022-11-29T11:57:00.767Z,63.20
2022-11-29T11:59:32.418Z,61.40
2022-11-29T12:02:16.292Z,65.23
2022-11-29T12:04:48.131Z,50.77
2022-11-29T12:07:38.708Z,66.63
2022-11-29T12:10:17.619Z,61.73
2022-11-29T12:12:49.350Z,61.53
2022-11-29T12:15:21.920Z,62.43
2022-11-29T12:17:56.271Z,64.67
2022-11-29T12:20:28.864Z,70.47
2022-11-29T12:23:09.214Z,64.80
2022-11-29T12:25:44.050Z,74.37
2022-11-29T12:28:20.332Z,54.37
2022-11-29T12:30:55.261Z,52.17
2022-11-29T12:33:33.323Z,65.87
2022-11-29T12:36:13.935Z,60.10
2022-11-29T12:38:59.138Z,53.73
2022-11-29T12:41:35.004Z,57.13
2022-11-29T12:44:13.734Z,64.10
2022-11-29T12:46:48.253Z,69.03
2022-11-29T12:49:24.027Z,59.90
2022-11-29T12:51:57.750Z,56.37
2022-11-29T12:54:36.803Z,64.10
2022-11-29T12:57:12.071Z,59.30
2022-11-29T13:00:00.693Z,65.77
2022-11-29T13:02:40.611Z,65.27
2022-11-29T13:05:18.843Z,66.30
2022-11-29T13:08:03.382Z,64.43
2022-11-29T13:10:45.163Z,74.50
2022-11-29T13:13:19.533Z,75.83
2022-11-29T13:15:54.775Z,70.63
2022-11-29T13:18:28.716Z,78.00
2022-11-29T13:21:04.474Z,71.17
2022-11-29T13:24:07.318Z,76.73
2022-11-29T13:26:31.022Z,74.37
2022-11-29T13:29:02.671Z,78.80
2022-11-29T13:31:34.351Z,79.07
2022-11-29T13:34:07.540Z,79.73
2022-11-29T13:36:51.402Z,74.37
2022-11-29T13:39:46.223Z,67.73
2022-11-29T13:42:19.846Z,67.20
2022-11-29T13:44:55.079Z,62.53
2022-11-29T13:47:26.732Z,57.80
2022-11-29T13:49:58.979Z,78.07
2022-11-29T13:52:38.745Z,62.73
2022-11-29T13:55:21.412Z,72.93
2022-11-29T13:58:15.409Z,67.40
2022-11-29T14:00:49.482Z,73.00
2022-11-29T14:03:32.372Z,69.23
2022-11-29T14:06:08.951Z,72.27
2022-11-29T14:11:37.949Z,66.87
2022-11-29T14:14:10.750Z,73.27
2022-11-29T14:16:46.286Z,73.77
2022-11-29T14:19:23.283Z,75.93
2022-11-29T14:22:27.956Z,73.30
2022-11-29T14:25:49.599Z,73.60
2022-11-29T14:28:28.742Z,78.03
2022-11-29T14:31:00.730Z,64.07
2022-11-29T14:33:38.451Z,70.03
2022-11-29T14:36:25.218Z,60.37
2022-11-29T14:39:02.275Z,66.50
2022-11-29T14:41:42.651Z,66.13
2022-11-29T14:44:16.851Z,64.60
2022-11-29T14:46:48.554Z,63.87
2022-11-29T14:49:22.286Z,66.67
2022-11-29T14:52:09.418Z,61.93
2022-11-29T14:54:54.416Z,59.77
2022-11-29T14:57:52.606Z,57.47
2022-11-29T15:00:24.898Z,61.70
2022-11-29T15:02:58.556Z,59.83
2022-11-29T15:05:32.430Z,65.00
2022-11-29T15:08:08.697Z,68.83
2022-11-29T15:10:42.286Z,65.90
2022-11-29T15:13:17.550Z,60.97
2022-11-29T15:16:09.050Z,52.63
2022-11-29T15:19:09.632Z,63.83
2022-11-29T15:21:45.429Z,68.83
2022-11-29T15:24:17.500Z,67.27
2022-11-29T15:26:55.909Z,73.00
2022-11-29T15:29:29.361Z,64.90
2022-11-29T15:32:01.712Z,68.57
2022-11-29T15:34:36.956Z,67.57
2022-11-29T15:37:11.601Z,64.50
2022-11-29T15:39:43.271Z,67.13
2022-11-29T15:42:15.296Z,61.07
2022-11-29T15:44:48.700Z,72.10
2022-11-29T15:47:21.763Z,67.27
2022-11-29T15:49:53.822Z,66.63
2022-11-29T15:52:27.779Z,71.77
2022-11-29T15:55:00.184Z,70.03
2022-11-29T15:57:33.649Z,64.53
2022-11-29T16:00:08.054Z,73.47
2022-11-29T16:02:40.494Z,64.10
2022-11-29T16:05:16.115Z,79.27
2022-11-29T16:07:47.919Z,83.87
2022-11-29T16:10:20.480Z,74.47
2022-11-29T16:12:52.858Z,79.47
2022-11-29T16:15:28.061Z,77.03
2022-11-29T16:18:03.541Z,82.13
2022-11-29T16:20:35.187Z,80.37
2022-11-29T16:23:10.791Z,75.07
2022-11-29T16:25:50.516Z,76.40
2022-11-29T16:28:22.337Z,80.50
2022-11-29T16:30:55.323Z,82.13
2022-11-29T16:33:26.993Z,86.33
2022-11-29T16:36:06.090Z,85.87
2022-11-29T16:38:42.345Z,81.53
2022-11-29T16:41:22.035Z,86.40
2022-11-29T16:43:54.175Z,91.67
2022-11-29T16:46:32.174Z,83.33
2022-11-29T16:49:24.233Z,80.57
2022-11-29T16:51:55.886Z,86.30
2022-11-29T16:54:28.209Z,90.37
2022-11-29T16:57:02.459Z,87.70
2022-11-29T16:59:34.077Z,77.50
2022-11-29T17:02:09.749Z,89.27
2022-11-29T17:04:41.452Z,87.77
2022-11-29T17:07:14.910Z,86.57
2022-11-29T17:09:46.529Z,87.83
2022-11-29T17:12:18.156Z,77.37
2022-11-29T17:14:49.807Z,77.20
2022-11-29T17:17:22.854Z,89.03
2022-11-29T17:19:54.495Z,86.10
2022-11-29T17:22:26.152Z,80.13
2022-11-29T17:24:58.148Z,80.90
2022-11-29T17:27:29.825Z,77.53
2022-11-29T17:30:01.478Z,84.87
2022-11-29T17:32:34.897Z,77.73
2022-11-29T17:35:06.884Z,83.27
2022-11-29T17:37:38.528Z,84.57
2022-11-29T17:40:11.104Z,79.23
2022-11-29T17:42:42.782Z,78.40
2022-11-29T17:45:14.588Z,80.77
2022-11-29T17:47:47.586Z,82.33
2022-11-29T17:50:19.236Z,78.57
2022-11-29T17:52:50.909Z,66.40
2022-11-29T17:55:26.927Z,74.17
2022-11-29T17:58:01.032Z,83.07
2022-11-29T18:00:32.673Z,71.40
2022-11-29T18:03:06.038Z,66.87
2022-11-29T18:05:37.700Z,66.60
2022-11-29T18:08:09.361Z,64.10
2022-11-29T18:10:40.995Z,64.63
2022-11-29T18:13:12.635Z,66.17
2022-11-29T18:15:44.251Z,73.70
2022-11-29T18:18:17.326Z,77.70
2022-11-29T18:20:48.966Z,70.23
2022-11-29T18:23:20.615Z,67.50
2022-11-29T18:25:56.873Z,64.17
2022-11-29T18:28:28.752Z,67.37
2022-11-29T18:31:06.849Z,74.10
2022-11-29T18:33:40.075Z,59.13
2022-11-29T18:36:12.759Z,64.73
2022-11-29T18:38:44.827Z,81.33
2022-11-29T18:41:17.223Z,62.40
2022-11-29T18:43:48.903Z,63.47
2022-11-29T18:46:20.634Z,61.20
2022-11-29T18:48:53.634Z,76.80
2022-11-29T18:51:25.300Z,75.13
2022-11-29T18:53:57.202Z,80.80
2022-11-29T18:56:29.825Z,70.03
2022-11-29T18:59:03.067Z,73.07
2022-11-29T19:01:35.055Z,70.27
2022-11-29T19:04:08.535Z,65.27
2022-11-29T19:06:40.460Z,63.77
2022-11-29T19:09:12.956Z,62.77
2022-11-29T19:11:44.617Z,70.33
2022-11-29T19:14:16.258Z,80.67
2022-11-29T19:16:48.288Z,79.43
2022-11-29T19:19:21.269Z,75.50
2022-11-29T19:21:52.911Z,69.40
2022-11-29T19:24:24.566Z,71.10
2022-11-29T19:26:56.223Z,63.97
2022-11-29T19:29:27.857Z,68.87
2022-11-29T19:31:59.508Z,60.13
2022-11-29T19:34:32.495Z,66.43
2022-11-29T19:37:04.135Z,65.23
2022-11-29T19:39:35.770Z,62.03
2022-11-29T19:42:07.431Z,73.63
2022-11-29T19:45:08.569Z,80.40
2022-11-29T19:47:30.746Z,68.60
2022-11-29T19:50:04.213Z,68.57
2022-11-29T19:52:35.899Z,63.30
2022-11-29T19:55:08.274Z,69.83
2022-11-29T19:57:39.932Z,63.10
2022-11-29T20:00:12.929Z,67.93
2022-11-29T20:02:44.632Z,79.10
2022-11-29T20:05:18.220Z,68.43
2022-11-29T20:07:49.937Z,63.80
2022-11-29T20:10:21.636Z,81.77
2022-11-29T20:12:53.514Z,78.67
2022-11-29T20:15:25.147Z,63.60
2022-11-29T20:17:56.804Z,71.57
2022-11-29T20:20:29.923Z,70.60
2022-11-29T20:23:01.621Z,56.00
2022-11-29T20:25:33.331Z,68.37
2022-11-29T20:28:05.008Z,67.33
2022-11-29T20:30:36.692Z,71.20
2022-11-29T20:33:10.229Z,65.77
2022-11-29T20:35:43.287Z,62.07
2022-11-29T20:38:18.148Z,61.63
2022-11-29T20:40:58.170Z,69.63
2022-11-29T20:43:36.609Z,79.80
2022-11-29T20:46:08.697Z,71.10
2022-11-29T20:48:40.778Z,68.30
2022-11-29T20:51:13.777Z,64.50
2022-11-29T20:53:45.432Z,74.80
2022-11-29T20:56:17.067Z,62.67
2022-11-29T20:58:48.728Z,70.10
2022-11-29T21:01:20.417Z,67.93
2022-11-29T21:03:52.165Z,63.00
2022-11-29T21:06:25.141Z,59.40
2022-11-29T21:08:56.833Z,62.53
2022-11-29T21:11:28.747Z,72.50
2022-11-29T21:14:00.714Z,61.50
2022-11-29T21:16:32.793Z,58.47
2022-11-29T21:19:05.128Z,67.80
2022-11-29T21:21:42.249Z,68.60
2022-11-29T21:24:17.833Z,64.87
2022-11-29T21:26:50.546Z,70.40
2022-11-29T21:29:22.813Z,63.63
2022-11-29T21:31:54.924Z,64.90
2022-11-29T21:34:26.570Z,70.97
2022-11-29T21:36:59.572Z,69.93
2022-11-29T21:39:32.044Z,63.20
2022-11-29T21:42:04.138Z,76.83
2022-11-29T21:44:35.820Z,68.77
2022-11-29T21:47:07.475Z,71.57
2022-11-29T21:49:39.213Z,69.97
2022-11-29T21:52:13.048Z,63.60
2022-11-29T21:54:47.281Z,66.67
2022-11-29T21:57:19.057Z,64.63
2022-11-29T21:59:50.764Z,59.57
2022-11-29T22:02:22.507Z,59.43
2022-11-29T22:04:54.255Z,70.43
2022-11-29T22:07:27.277Z,76.60
2022-11-29T22:09:58.960Z,63.83
2022-11-29T22:12:35.146Z,69.37
2022-11-29T22:15:07.829Z,70.50
2022-11-29T22:17:39.466Z,74.40
2022-11-29T22:20:12.356Z,67.73
2022-11-29T22:22:45.337Z,70.53
2022-11-29T22:25:17.158Z,78.47
2022-11-29T22:27:49.237Z,71.70
2022-11-29T22:30:20.889Z,67.30
2022-11-29T22:32:52.511Z,77.37
2022-11-29T22:35:24.185Z,70.03
2022-11-29T22:37:57.138Z,78.17
2022-11-29T22:40:28.796Z,69.10
2022-11-29T22:43:00.418Z,73.03
2022-11-29T22:45:32.067Z,66.27
2022-11-29T22:48:04.096Z,71.20
2022-11-29T22:50:35.775Z,76.60
2022-11-29T22:53:08.745Z,68.93
2022-11-29T22:55:40.402Z,75.93
2022-11-29T22:58:12.166Z,71.17
